Time;durP1;ratioP1;P1;durP2;ratioP2;P2;SDS_P1;SDS_P2;PMS_P1;PMS_P2;Temp;Humidity;BMP_temperature;BMP_pressure;BME280_temperature;BME280_humidity;BME280_pressure;Samples;Min_cycle;Max_cycle;Signal;HPM_P1;HPM_P2
2023/08/11 00:02:07;;;;;;;6.70;4.70;;;;;;;14.59;80.64;101200.30;106181;1262;100009;-80
2023/08/11 00:04:53;;;;;;;8.70;5.40;;;;;;;14.62;80.84;101198.95;105601;1259;99802;-79
2023/08/11 00:07:39;;;;;;;9.80;5.90;;;;;;;14.62;81.05;101197.41;105622;1259;99095;-81
2023/08/11 00:10:25;;;;;;;9.70;5.10;;;;;;;14.64;81.29;101193.60;105985;1264;96562;-80
2023/08/11 00:13:13;;;;;;;9.40;5.10;;;;;;;14.66;81.36;101190.88;106074;1262;97156;-81
2023/08/11 00:15:59;;;;;;;10.50;5.10;;;;;;;14.66;81.42;101188.42;106376;1259;101857;-81
2023/08/11 00:18:45;;;;;;;6.90;5.30;;;;;;;14.66;81.39;101189.92;105954;1259;99887;-81
2023/08/11 00:21:31;;;;;;;8.50;5.60;;;;;;;14.64;81.24;101189.95;105916;1262;97908;-82
2023/08/11 00:24:16;;;;;;;9.10;5.00;;;;;;;14.59;81.37;101186.66;106138;1263;97183;-81
2023/08/11 00:27:02;;;;;;;8.70;5.40;;;;;;;14.59;81.46;101190.33;105980;1259;97506;-79
2023/08/11 00:29:48;;;;;;;10.90;5.50;;;;;;;14.59;81.75;101187.19;105486;1259;100450;-81
2023/08/11 00:32:34;;;;;;;13.10;6.00;;;;;;;14.61;81.99;101188.52;106563;1264;99900;-80
2023/08/11 00:35:21;;;;;;;11.50;6.40;;;;;;;14.62;82.14;101186.59;105915;1264;99034;-80
2023/08/11 00:38:07;;;;;;;10.10;6.10;;;;;;;14.62;82.40;101186.46;106081;1259;96745;-80
2023/08/11 00:40:52;;;;;;;13.00;6.90;;;;;;;14.61;82.40;101182.60;106137;1264;97482;-79
2023/08/11 00:43:38;;;;;;;8.60;5.80;;;;;;;14.61;82.53;101180.27;106209;1259;101250;-80
2023/08/11 00:46:24;;;;;;;10.40;6.60;;;;;;;14.61;82.51;101177.48;106345;1259;99181;-80
2023/08/11 00:49:09;;;;;;;12.60;6.20;;;;;;;14.60;82.49;101180.31;106381;1264;98597;-81
2023/08/11 00:51:55;;;;;;;11.20;5.60;;;;;;;14.57;82.40;101177.59;106221;1261;96431;-80
2023/08/11 00:54:41;;;;;;;10.20;6.20;;;;;;;14.56;82.30;101182.03;106286;1259;97308;-81
2023/08/11 00:57:26;;;;;;;10.60;6.50;;;;;;;14.54;82.06;101176.75;106172;1259;99984;-82
2023/08/11 01:00:15;;;;;;;12.40;6.20;;;;;;;14.48;81.59;101174.11;106196;1261;99810;-80
2023/08/11 01:03:01;;;;;;;9.00;6.30;;;;;;;14.43;81.50;101176.73;106263;1268;97710;-80
2023/08/11 01:06:00;;;;;;;9.50;6.00;;;;;;;14.40;81.79;101174.46;106026;1260;97169;-80
2023/08/11 01:09:14;;;;;;;9.90;5.70;;;;;;;14.35;81.43;101178.23;106170;1260;97174;-80
2023/08/11 01:12:12;;;;;;;9.80;5.90;;;;;;;14.27;81.17;101176.29;106383;1264;99997;-81
2023/08/11 01:15:15;;;;;;;9.80;5.50;;;;;;;14.21;81.05;101180.80;106667;1266;100763;-80
2023/08/11 01:18:03;;;;;;;9.10;5.40;;;;;;;14.12;80.89;101179.82;106198;1260;97761;-81
2023/08/11 01:20:53;;;;;;;5.40;3.90;;;;;;;14.06;81.18;101176.99;106286;1259;96761;-80
2023/08/11 01:23:40;;;;;;;5.30;4.10;;;;;;;14.01;81.03;101175.42;106353;1264;95899;-80
2023/08/11 01:26:26;;;;;;;7.20;4.00;;;;;;;13.94;80.60;101172.55;106025;1260;100084;-81
2023/08/11 01:29:12;;;;;;;4.80;3.90;;;;;;;13.86;80.59;101172.20;106040;1259;99826;-79
2023/08/11 01:31:57;;;;;;;8.30;4.40;;;;;;;13.79;80.59;101172.84;105576;1266;97727;-78
2023/08/11 01:34:43;;;;;;;6.60;4.40;;;;;;;13.72;80.92;101171.28;105669;1259;96998;-79
2023/08/11 01:37:31;;;;;;;7.40;4.40;;;;;;;13.71;81.05;101169.36;105614;1264;97183;-81
2023/08/11 01:40:17;;;;;;;7.60;4.70;;;;;;;13.68;80.88;101169.14;106352;1263;100026;-81
2023/08/11 01:43:05;;;;;;;8.50;5.80;;;;;;;13.64;81.56;101170.59;105588;1263;99121;-80
2023/08/11 01:45:51;;;;;;;8.00;4.80;;;;;;;13.61;81.26;101169.64;105611;1265;97791;-81
2023/08/11 01:48:38;;;;;;;7.10;5.30;;;;;;;13.58;81.09;101171.11;105628;1259;96626;-80
2023/08/11 01:51:24;;;;;;;6.60;5.30;;;;;;;13.55;81.06;101169.21;106222;1263;96179;-80
2023/08/11 01:54:11;;;;;;;9.30;5.00;;;;;;;13.52;81.02;101168.16;106324;1259;101695;-79
2023/08/11 01:56:56;;;;;;;7.90;5.60;;;;;;;13.50;81.06;101164.27;106115;1260;99779;-80
2023/08/11 01:59:42;;;;;;;12.10;5.80;;;;;;;13.49;81.23;101161.53;106323;1259;97759;-79
2023/08/11 02:02:28;;;;;;;10.50;6.30;;;;;;;13.51;81.66;101158.12;105648;1262;96619;-81
2023/08/11 02:05:17;;;;;;;12.40;7.40;;;;;;;13.54;82.31;101155.41;106134;1259;96546;-81
2023/08/11 02:08:03;;;;;;;12.60;7.60;;;;;;;13.57;83.00;101155.52;106195;1259;100755;-81
2023/08/11 02:10:48;;;;;;;10.50;6.40;;;;;;;13.59;83.18;101153.11;106322;1260;100078;-82
2023/08/11 02:13:34;;;;;;;8.40;6.30;;;;;;;13.61;83.08;101154.12;106171;1259;100263;-81
2023/08/11 02:16:20;;;;;;;10.00;6.50;;;;;;;13.60;82.72;101153.81;106185;1262;96704;-80
2023/08/11 02:19:05;;;;;;;10.90;6.20;;;;;;;13.56;82.22;101155.77;106192;1259;96681;-82
2023/08/11 02:21:51;;;;;;;12.30;6.60;;;;;;;13.54;82.02;101158.47;106281;1261;101277;-79
2023/08/11 02:24:37;;;;;;;9.30;6.10;;;;;;;13.52;82.05;101159.25;106177;1264;99823;-81
2023/08/11 02:27:22;;;;;;;7.80;5.70;;;;;;;13.47;81.57;101161.80;106124;1265;98706;-80
2023/08/11 02:30:11;;;;;;;9.40;5.70;;;;;;;13.40;81.39;101163.59;106196;1265;97865;-80
2023/08/11 02:32:56;;;;;;;9.30;5.30;;;;;;;13.32;81.32;101165.58;106535;1265;99462;-80
2023/08/11 02:35:41;;;;;;;5.50;4.60;;;;;;;13.26;81.57;101171.52;106090;1259;100006;-81
2023/08/11 02:38:27;;;;;;;7.90;4.80;;;;;;;13.20;81.33;101174.78;106013;1258;99070;-81
2023/08/11 02:41:13;;;;;;;6.70;4.70;;;;;;;13.12;81.08;101181.13;106069;1265;99124;-80
2023/08/11 02:43:58;;;;;;;9.40;4.60;;;;;;;13.05;80.94;101181.04;106294;1260;96614;-80
2023/08/11 02:46:43;;;;;;;11.10;4.30;;;;;;;13.01;81.41;101182.41;106758;1264;96813;-80
2023/08/11 02:49:29;;;;;;;6.70;4.00;;;;;;;12.95;81.05;101187.54;106115;1265;101278;-81
2023/08/11 02:52:14;;;;;;;8.90;3.80;;;;;;;12.89;81.17;101190.23;106419;1260;100389;-81
2023/08/11 02:55:01;;;;;;;6.80;4.20;;;;;;;12.85;81.34;101190.05;106189;1259;99534;-81
2023/08/11 02:57:46;;;;;;;5.50;3.90;;;;;;;12.80;81.71;101195.42;105699;1259;96691;-80
2023/08/11 03:00:33;;;;;;;7.50;4.00;;;;;;;12.76;81.40;101193.29;106365;1259;96591;-79
2023/08/11 03:03:19;;;;;;;5.20;3.30;;;;;;;12.72;81.41;101191.55;106178;1264;99980;-80
2023/08/11 03:06:05;;;;;;;7.80;3.20;;;;;;;12.69;81.29;101190.35;106248;1259;99826;-81
2023/08/11 03:08:51;;;;;;;5.40;3.60;;;;;;;12.63;80.98;101192.86;106173;1259;97837;-81
2023/08/11 03:11:36;;;;;;;5.50;3.70;;;;;;;12.57;81.14;101193.80;106348;1262;97339;-81
2023/08/11 03:14:22;;;;;;;6.20;3.90;;;;;;;12.53;81.36;101193.46;106121;1259;96801;-81
2023/08/11 03:17:10;;;;;;;4.70;3.80;;;;;;;12.50;81.61;101191.59;106198;1265;100968;-80
2023/08/11 03:19:56;;;;;;;8.90;4.30;;;;;;;12.49;81.72;101196.08;106428;1263;100305;-80
2023/08/11 03:22:43;;;;;;;8.10;4.60;;;;;;;12.47;82.10;101196.39;106191;1259;97823;-80
2023/08/11 03:25:30;;;;;;;8.30;4.80;;;;;;;12.47;82.45;101197.80;106341;1264;96624;-80
2023/08/11 03:28:15;;;;;;;6.40;3.90;;;;;;;12.46;82.49;101197.98;105640;1265;96534;-80
2023/08/11 03:31:01;;;;;;;6.20;4.20;;;;;;;12.46;82.70;101203.27;105660;1262;100009;-79
2023/08/11 03:33:49;;;;;;;8.70;4.40;;;;;;;12.44;82.57;101205.52;105608;1259;99156;-79
2023/08/11 03:36:34;;;;;;;5.90;4.30;;;;;;;12.44;82.58;101203.19;105565;1264;99101;-81
2023/08/11 03:39:20;;;;;;;6.80;4.50;;;;;;;12.42;82.65;101204.25;106238;1262;96413;-79
2023/08/11 03:42:07;;;;;;;5.70;4.20;;;;;;;12.39;82.80;101205.42;105631;1260;96623;-81
2023/08/11 03:44:52;;;;;;;9.30;5.10;;;;;;;12.41;82.77;101206.88;106222;1259;100001;-80
2023/08/11 03:47:40;;;;;;;8.30;5.40;;;;;;;12.43;83.32;101206.00;106620;1259;99212;-80
2023/08/11 03:50:26;;;;;;;7.80;5.10;;;;;;;12.43;83.25;101207.70;106017;1265;97715;-79
2023/08/11 03:53:12;;;;;;;5.90;4.70;;;;;;;12.45;83.50;101207.27;106138;1265;96780;-80
2023/08/11 03:55:58;;;;;;;7.70;5.10;;;;;;;12.46;83.31;101208.48;106127;1265;96537;-81
2023/08/11 03:58:44;;;;;;;9.70;5.30;;;;;;;12.45;83.50;101211.66;105630;1259;100076;-79
2023/08/11 04:01:30;;;;;;;7.90;5.80;;;;;;;12.43;83.82;101214.35;105649;1259;99194;-79
2023/08/11 04:04:15;;;;;;;8.60;4.90;;;;;;;12.42;84.01;101213.25;105721;1265;98169;-81
2023/08/11 04:07:01;;;;;;;8.10;5.10;;;;;;;12.38;83.70;101210.20;105756;1262;96621;-80
2023/08/11 04:09:48;;;;;;;8.80;5.20;;;;;;;12.36;84.04;101202.98;106564;1260;97078;-79
2023/08/11 04:12:33;;;;;;;7.60;4.70;;;;;;;12.35;84.01;101206.14;105708;1260;100713;-79
2023/08/11 04:15:19;;;;;;;5.70;4.30;;;;;;;12.34;83.63;101205.72;105749;1260;100006;-80
2023/08/11 04:18:04;;;;;;;7.00;4.30;;;;;;;12.34;83.91;101209.14;105675;1262;99021;-81
2023/08/11 04:20:50;;;;;;;8.80;4.10;;;;;;;12.34;83.94;101209.88;105475;1259;96567;-80
2023/08/11 04:23:35;;;;;;;17.30;4.40;;;;;;;12.33;83.88;101204.78;106275;1267;96617;-81
2023/08/11 04:26:21;;;;;;;9.90;5.30;;;;;;;12.33;84.37;101206.23;106249;1263;100105;-80
2023/08/11 04:29:07;;;;;;;6.10;4.40;;;;;;;12.36;85.05;101211.23;106373;1265;99182;-81
2023/08/11 04:31:53;;;;;;;5.50;4.70;;;;;;;12.42;85.35;101212.28;106273;1259;97776;-81
2023/08/11 04:34:39;;;;;;;7.90;4.80;;;;;;;12.47;85.60;101213.51;106307;1259;96722;-81
2023/08/11 04:37:26;;;;;;;7.40;4.90;;;;;;;12.49;85.85;101217.37;105711;1265;97198;-80
2023/08/11 04:40:13;;;;;;;8.50;4.70;;;;;;;12.52;86.28;101220.30;106139;1260;100084;-81
2023/08/11 04:43:00;;;;;;;7.00;4.70;;;;;;;12.55;86.21;101223.42;106252;1259;100261;-81
2023/08/11 04:45:50;;;;;;;6.60;5.10;;;;;;;12.61;86.73;101224.88;106329;1259;98503;-80
2023/08/11 04:48:36;;;;;;;7.60;4.50;;;;;;;12.67;87.22;101222.65;106199;1265;97655;-81
2023/08/11 04:51:21;;;;;;;8.00;4.90;;;;;;;12.73;87.75;101221.04;106214;1261;97794;-81
2023/08/11 04:54:09;;;;;;;6.80;5.20;;;;;;;12.81;88.02;101223.59;106160;1259;101330;-80
2023/08/11 04:56:54;;;;;;;8.50;5.10;;;;;;;12.91;88.25;101222.29;106380;1259;99744;-81
2023/08/11 04:59:40;;;;;;;7.00;5.60;;;;;;;12.99;88.57;101227.48;106310;1259;98473;-81
2023/08/11 05:02:26;;;;;;;11.30;6.20;;;;;;;13.09;88.96;101228.96;107051;1261;97506;-80
2023/08/11 05:05:12;;;;;;;9.30;6.30;;;;;;;13.21;89.36;101227.50;106324;1262;96539;-81
2023/08/11 05:07:59;;;;;;;13.30;7.90;;;;;;;13.34;90.02;101231.63;106311;1260;101681;-80
2023/08/11 05:10:44;;;;;;;10.40;7.80;;;;;;;13.47;90.14;101228.41;106294;1264;99232;-80
2023/08/11 05:13:30;;;;;;;14.40;7.80;;;;;;;13.60;90.25;101224.80;106167;1260;97801;-81
2023/08/11 05:16:15;;;;;;;13.80;8.10;;;;;;;13.72;90.68;101228.40;106237;1264;96631;-80
2023/08/11 05:19:01;;;;;;;8.90;6.10;;;;;;;13.83;91.14;101233.45;106062;1260;98008;-80
2023/08/11 05:21:46;;;;;;;9.40;6.00;;;;;;;13.92;92.05;101231.64;106168;1265;100078;-80
2023/08/11 05:24:32;;;;;;;9.10;6.90;;;;;;;14.01;92.08;101235.07;106145;1265;102065;-81
2023/08/11 05:27:18;;;;;;;10.50;6.90;;;;;;;14.09;92.46;101235.66;105957;1260;98471;-81
2023/08/11 05:30:03;;;;;;;10.60;7.20;;;;;;;14.15;92.08;101228.34;106189;1260;96544;-81
2023/08/11 05:32:50;;;;;;;11.10;7.30;;;;;;;14.24;91.84;101236.14;106089;1259;97103;-81
2023/08/11 05:35:36;;;;;;;8.10;6.50;;;;;;;14.33;92.58;101232.53;105933;1266;100113;-82
2023/08/11 05:38:22;;;;;;;10.70;7.40;;;;;;;14.42;92.55;101234.80;106059;1260;99104;-81
2023/08/11 05:41:09;;;;;;;12.50;7.50;;;;;;;14.51;92.29;101236.63;105887;1260;97872;-81
2023/08/11 05:43:54;;;;;;;13.40;7.80;;;;;;;14.59;91.77;101236.67;106016;1262;96559;-81
2023/08/11 05:46:39;;;;;;;11.60;7.80;;;;;;;14.69;91.65;101233.05;106177;1265;96548;-80
2023/08/11 05:49:25;;;;;;;9.60;7.00;;;;;;;14.79;91.33;101237.80;105969;1265;101268;-80
2023/08/11 05:52:11;;;;;;;11.00;7.50;;;;;;;14.89;90.92;101234.16;105973;1265;99122;-82
2023/08/11 05:54:56;;;;;;;12.20;7.70;;;;;;;15.00;90.87;101232.40;106043;1265;99057;-82
2023/08/11 05:57:42;;;;;;;12.30;7.00;;;;;;;15.10;90.75;101232.98;105781;1265;97933;-81
2023/08/11 06:00:28;;;;;;;7.90;6.70;;;;;;;15.23;90.75;101233.07;105648;1267;97158;-83
2023/08/11 06:03:13;;;;;;;10.60;7.40;;;;;;;15.36;90.66;101234.91;105872;1264;100027;-81
2023/08/11 06:06:04;;;;;;;13.20;7.30;;;;;;;15.49;89.86;101234.86;106032;1265;100093;-82
2023/08/11 06:08:49;;;;;;;9.40;6.30;;;;;;;15.63;89.80;101231.88;105948;1265;97776;-82
2023/08/11 06:11:36;;;;;;;11.40;7.10;;;;;;;15.76;88.21;101230.14;106081;1259;96677;-80
2023/08/11 06:14:22;;;;;;;9.70;7.50;;;;;;;15.88;87.58;101231.88;105979;1265;96588;-80
2023/08/11 06:17:07;;;;;;;8.30;7.20;;;;;;;16.04;87.70;101228.92;106014;1259;101244;-81
2023/08/11 06:19:53;;;;;;;8.60;6.50;;;;;;;16.19;87.06;101228.53;105938;1266;99319;-81
2023/08/11 06:22:38;;;;;;;9.30;6.00;;;;;;;16.36;86.55;101227.94;105877;1279;97773;-80
2023/08/11 06:25:24;;;;;;;9.80;5.90;;;;;;;16.51;86.73;101229.15;105808;1265;96732;-81
2023/08/11 06:28:09;;;;;;;12.20;5.80;;;;;;;16.66;85.55;101231.09;105945;1266;96604;-81
2023/08/11 06:30:54;;;;;;;9.70;5.20;;;;;;;16.78;85.03;101234.73;106009;1265;102024;-80
2023/08/11 06:33:40;;;;;;;6.60;4.60;;;;;;;16.90;84.68;101237.86;105919;1265;99967;-81
2023/08/11 06:36:26;;;;;;;11.90;4.50;;;;;;;16.99;84.31;101234.72;105762;1263;97900;-80
2023/08/11 06:39:13;;;;;;;11.30;4.90;;;;;;;17.11;84.39;101238.39;105909;1264;96800;-84
2023/08/11 06:41:59;;;;;;;10.70;4.70;;;;;;;17.23;84.37;101240.84;105947;1265;96626;-90
2023/08/11 06:45:05;;;;;;;6.60;4.10;;;;;;;17.36;83.87;101240.58;106389;1268;101199;-86
2023/08/11 06:47:51;;;;;;;9.50;4.30;;;;;;;17.44;83.14;101242.73;106354;1265;100484;-88
2023/08/11 06:50:37;;;;;;;5.00;3.60;;;;;;;17.55;82.93;101241.91;106144;1261;98903;-89
2023/08/11 06:53:24;;;;;;;9.50;3.50;;;;;;;17.68;82.29;101244.92;106218;1266;96598;-89
2023/08/11 06:56:09;;;;;;;6.00;3.50;;;;;;;17.81;81.78;101244.19;106135;1269;96640;-88
2023/08/11 06:58:55;;;;;;;10.20;8.00;;;;;;;17.93;81.01;101241.73;106215;1259;101704;-89
2023/08/11 07:01:41;;;;;;;5.90;4.00;;;;;;;18.05;80.29;101244.69;106353;1261;100397;-88
2023/08/11 07:04:27;;;;;;;6.10;3.40;;;;;;;18.17;79.61;101251.05;106396;1263;97839;-86
2023/08/11 07:07:13;;;;;;;4.80;3.00;;;;;;;18.28;78.25;101252.30;106353;1265;96604;-87
2023/08/11 07:09:59;;;;;;;7.40;3.30;;;;;;;18.38;78.42;101252.14;106301;1260;97183;-88
2023/08/11 07:12:44;;;;;;;6.80;3.20;;;;;;;18.52;77.50;101249.34;106368;1260;109349;-88
2023/08/11 07:15:30;;;;;;;6.70;3.80;;;;;;;18.62;76.64;101250.48;106414;1259;100980;-88
2023/08/11 07:18:16;;;;;;;6.60;3.50;;;;;;;18.73;75.61;101252.14;106168;1260;98012;-87
2023/08/11 07:21:02;;;;;;;4.10;2.90;;;;;;;18.82;74.41;101252.58;106122;1261;96714;-87
2023/08/11 07:23:48;;;;;;;6.20;3.40;;;;;;;18.92;73.51;101253.33;106258;1263;97039;-86
2023/08/11 07:26:34;;;;;;;4.30;3.30;;;;;;;19.02;72.89;101257.23;107460;1260;101471;-88
2023/08/11 07:29:20;;;;;;;6.70;2.70;;;;;;;19.11;72.18;101255.67;108218;1259;99166;-86
2023/08/11 07:32:06;;;;;;;7.10;2.90;;;;;;;19.18;71.64;101251.46;108143;1259;98488;-87
2023/08/11 07:34:51;;;;;;;2.70;2.30;;;;;;;19.29;71.45;101251.97;108205;1260;95445;-88
2023/08/11 07:37:37;;;;;;;4.20;2.40;;;;;;;19.40;71.19;101251.31;108256;1259;95810;-86
2023/08/11 07:40:23;;;;;;;3.60;2.10;;;;;;;19.50;70.76;101250.13;107315;1260;102465;-87
2023/08/11 07:43:08;;;;;;;4.10;2.10;;;;;;;19.60;70.61;101252.22;108016;1260;99093;-87
2023/08/11 07:45:53;;;;;;;4.70;2.00;;;;;;;19.71;70.69;101251.90;106799;1266;98376;-85
2023/08/11 07:48:39;;;;;;;3.50;2.00;;;;;;;19.81;70.00;101251.09;106307;1260;97992;-85
2023/08/11 07:51:25;;;;;;;3.30;1.80;;;;;;;19.88;68.04;101253.40;106328;1266;98071;-85
2023/08/11 07:54:13;;;;;;;3.70;2.00;;;;;;;19.93;66.93;101255.59;106170;1269;102711;-86
2023/08/11 07:56:59;;;;;;;3.10;2.00;;;;;;;20.00;66.97;101255.27;106819;1266;99920;-87
2023/08/11 07:59:45;;;;;;;4.00;2.30;;;;;;;20.09;67.18;101252.09;106401;1259;97961;-87
2023/08/11 08:02:31;;;;;;;3.30;1.90;;;;;;;20.19;66.89;101251.67;106127;1269;98050;-86
2023/08/11 08:05:17;;;;;;;4.10;1.60;;;;;;;20.28;66.35;101254.89;106168;1260;97884;-86
2023/08/11 08:08:03;;;;;;;5.40;1.70;;;;;;;20.34;65.42;101256.64;106068;1266;101434;-87
2023/08/11 08:10:50;;;;;;;5.70;1.80;;;;;;;20.42;65.19;101261.28;106103;1261;101496;-87
2023/08/11 08:13:35;;;;;;;5.50;2.00;;;;;;;20.48;65.13;101263.52;106247;1264;97902;-86
2023/08/11 08:16:21;;;;;;;3.30;1.80;;;;;;;20.58;65.44;101264.77;106220;1267;97945;-85
2023/08/11 08:19:07;;;;;;;5.20;2.00;;;;;;;20.66;64.28;101264.22;106182;1265;97990;-85
2023/08/11 08:21:53;;;;;;;4.20;1.70;;;;;;;20.70;62.96;101266.31;106231;1264;101259;-85
2023/08/11 08:24:39;;;;;;;3.40;1.80;;;;;;;20.74;62.84;101269.46;106195;1264;99210;-86
2023/08/11 08:27:25;;;;;;;3.70;1.60;;;;;;;20.80;63.00;101269.32;106197;1267;98512;-88
2023/08/11 08:30:11;;;;;;;3.50;1.70;;;;;;;20.88;63.13;101270.33;106201;1260;97942;-87
2023/08/11 08:32:57;;;;;;;3.60;1.60;;;;;;;20.97;62.78;101273.39;106091;1261;98009;-87
2023/08/11 08:35:43;;;;;;;4.90;1.70;;;;;;;21.04;62.71;101269.73;106188;1261;102725;-86
2023/08/11 08:38:29;;;;;;;2.90;1.80;;;;;;;21.13;62.85;101266.39;106234;1260;99191;-86
2023/08/11 08:41:20;;;;;;;2.60;1.50;;;;;;;21.21;61.67;101267.05;106008;1265;99142;-85
2023/08/11 08:44:06;;;;;;;4.30;1.80;;;;;;;21.27;61.74;101263.15;106010;1261;98075;-86
2023/08/11 08:46:53;;;;;;;4.20;2.40;;;;;;;21.34;61.97;101259.39;106188;1263;98426;-86
2023/08/11 08:49:43;;;;;;;3.60;1.80;;;;;;;21.43;61.56;101263.70;106220;1261;101463;-87
2023/08/11 08:52:30;;;;;;;4.80;2.20;;;;;;;21.46;60.27;101264.47;106144;1260;100558;-86
2023/08/11 08:55:17;;;;;;;4.10;1.70;;;;;;;21.49;60.50;101263.34;106135;1261;99221;-88
2023/08/11 08:58:02;;;;;;;3.20;1.90;;;;;;;21.56;60.66;101262.27;106164;1264;97988;-87
2023/08/11 09:00:50;;;;;;;4.70;2.00;;;;;;;21.64;60.99;101267.11;105880;1260;97900;-87
2023/08/11 09:03:39;;;;;;;6.80;1.60;;;;;;;21.69;59.74;101266.40;106135;1265;101405;-87
2023/08/11 09:06:26;;;;;;;3.60;2.10;;;;;;;21.72;58.66;101268.08;106018;1260;99830;-87
2023/08/11 09:09:12;;;;;;;5.30;1.70;;;;;;;21.77;59.35;101268.28;105811;1269;98501;-87
2023/08/11 09:11:59;;;;;;;6.70;1.60;;;;;;;21.83;58.76;101268.98;106035;1267;98337;-86
2023/08/11 09:14:45;;;;;;;4.10;1.60;;;;;;;21.87;58.23;101265.35;106344;1260;97840;-86
2023/08/11 09:17:31;;;;;;;5.00;1.60;;;;;;;21.95;58.23;101269.96;106153;1260;102691;-85
2023/08/11 09:20:19;;;;;;;2.70;1.60;;;;;;;22.02;57.43;101269.11;106078;1260;100742;-86
2023/08/11 09:23:06;;;;;;;6.60;1.90;;;;;;;22.07;56.72;101269.20;106040;1267;97977;-86
2023/08/11 09:25:54;;;;;;;2.40;1.70;;;;;;;22.10;55.67;101271.28;105744;1269;97895;-87
2023/08/11 09:28:40;;;;;;;2.70;1.40;;;;;;;22.10;55.30;101271.48;106179;1260;98468;-86
2023/08/11 09:31:26;;;;;;;4.20;1.80;;;;;;;22.12;56.15;101266.84;106215;1260;101449;-87
2023/08/11 09:34:14;;;;;;;3.60;1.40;;;;;;;22.18;55.14;101267.98;106187;1261;99169;-86
2023/08/11 09:37:00;;;;;;;3.10;1.50;;;;;;;22.20;54.54;101269.17;106097;1260;98065;-87
2023/08/11 09:39:48;;;;;;;3.70;1.60;;;;;;;22.22;54.42;101265.47;106200;1264;97861;-87
2023/08/11 09:42:34;;;;;;;4.00;1.60;;;;;;;22.26;54.56;101262.87;106076;1260;98829;-86
2023/08/11 09:45:21;;;;;;;3.50;1.70;;;;;;;22.31;54.35;101261.77;105867;1265;101452;-85
2023/08/11 09:48:08;;;;;;;4.20;1.70;;;;;;;22.39;54.94;101263.25;106191;1260;100979;-86
2023/08/11 09:50:56;;;;;;;3.30;1.90;;;;;;;22.46;54.68;101261.77;106112;1261;97899;-87
2023/08/11 09:53:43;;;;;;;2.90;1.90;;;;;;;22.53;55.35;101257.59;106222;1260;98299;-86
2023/08/11 09:56:34;;;;;;;4.80;1.70;;;;;;;22.62;54.54;101261.02;106118;1267;97906;-88
2023/08/11 09:59:22;;;;;;;3.50;1.70;;;;;;;22.67;54.10;101260.17;105986;1260;103065;-88
2023/08/11 10:02:14;;;;;;;4.50;1.70;;;;;;;22.72;53.75;101259.83;106121;1267;100457;-87
2023/08/11 10:05:06;;;;;;;4.60;1.70;;;;;;;22.76;53.78;101255.84;106087;1261;97960;-87
2023/08/11 10:07:54;;;;;;;3.00;1.50;;;;;;;22.78;53.70;101254.56;106088;1259;98071;-87
2023/08/11 10:10:41;;;;;;;7.90;1.60;;;;;;;22.78;53.04;101251.77;106075;1260;99547;-87
2023/08/11 10:13:28;;;;;;;5.40;1.70;;;;;;;22.81;52.39;101252.44;106089;1267;101538;-86
2023/08/11 10:16:15;;;;;;;4.70;1.60;;;;;;;22.92;52.54;101250.12;106167;1260;100569;-86
2023/08/11 10:19:00;;;;;;;3.10;1.60;;;;;;;23.02;51.96;101253.76;106177;1259;99534;-87
2023/08/11 10:21:47;;;;;;;4.30;1.80;;;;;;;23.13;52.57;101253.08;106188;1267;97888;-87
2023/08/11 10:24:36;;;;;;;2.80;1.90;;;;;;;23.24;52.82;101249.67;106126;1267;98394;-87
2023/08/11 10:27:23;;;;;;;4.80;1.60;;;;;;;23.37;52.23;101249.38;106124;1261;101417;-86
2023/08/11 10:30:13;;;;;;;4.50;1.60;;;;;;;23.47;51.31;101248.30;106193;1261;99170;-86
2023/08/11 10:33:03;;;;;;;4.90;2.00;;;;;;;23.56;51.25;101249.37;106065;1266;97906;-87
2023/08/11 10:35:51;;;;;;;4.00;1.90;;;;;;;23.56;51.40;101246.65;106101;1267;96656;-86
2023/08/11 10:38:37;;;;;;;3.30;1.90;;;;;;;23.54;51.29;101246.56;105880;1266;98396;-86
2023/08/11 10:41:23;;;;;;;3.40;1.80;;;;;;;23.49;50.06;101245.84;105829;1261;102363;-86
2023/08/11 10:44:08;;;;;;;5.50;2.10;;;;;;;23.49;51.06;101242.79;106105;1259;108050;-87
2023/08/11 10:46:58;;;;;;;7.90;2.90;;;;;;;23.55;50.00;101241.38;105966;1259;99298;-86
2023/08/11 10:49:45;;;;;;;3.40;1.70;;;;;;;23.60;49.70;101240.73;106087;1260;98022;-87
2023/08/11 10:52:34;;;;;;;5.10;1.60;;;;;;;23.66;50.25;101241.17;106037;1261;97791;-88
2023/08/11 10:55:32;;;;;;;6.70;1.60;;;;;;;23.68;50.75;101240.37;106005;1260;101433;-86
2023/08/11 10:58:20;;;;;;;2.50;1.60;;;;;;;23.68;50.09;101236.81;106095;1259;99168;-88
2023/08/11 11:01:06;;;;;;;3.80;1.90;;;;;;;23.66;49.59;101237.39;106053;1260;97908;-86
2023/08/11 11:03:53;;;;;;;7.50;2.20;;;;;;;23.59;49.73;101236.89;105886;1265;97850;-86
2023/08/11 11:06:39;;;;;;;7.40;2.00;;;;;;;23.47;49.90;101238.29;105949;1260;97910;-86
2023/08/11 11:09:30;;;;;;;5.90;2.10;;;;;;;23.41;50.85;101241.72;105932;1260;102722;-86
2023/08/11 11:12:15;;;;;;;6.20;1.60;;;;;;;23.43;51.81;101240.04;105892;1267;100346;-86
2023/08/11 11:15:01;;;;;;;3.60;2.00;;;;;;;23.49;51.22;101240.77;105840;1260;97994;-86
2023/08/11 11:17:49;;;;;;;3.00;2.00;;;;;;;23.51;50.54;101241.92;106094;1259;97920;-86
2023/08/11 11:20:35;;;;;;;4.00;2.10;;;;;;;23.54;51.01;101242.62;105917;1263;98401;-87
2023/08/11 11:23:21;;;;;;;3.80;1.80;;;;;;;23.63;51.12;101238.02;105923;1261;101426;-88
2023/08/11 11:26:07;;;;;;;2.80;1.90;;;;;;;23.65;50.09;101236.45;106218;1259;99186;-86
2023/08/11 11:28:57;;;;;;;4.50;1.80;;;;;;;23.67;50.15;101242.22;105995;1265;97978;-87
2023/08/11 11:31:43;;;;;;;3.80;1.90;;;;;;;23.74;50.40;101243.07;106029;1260;97992;-85
2023/08/11 11:34:29;;;;;;;5.00;1.90;;;;;;;23.83;49.07;101238.50;105901;1259;98568;-87
2023/08/11 11:37:17;;;;;;;4.70;2.10;;;;;;;23.92;49.77;101236.95;106102;1260;101360;-87
2023/08/11 11:40:06;;;;;;;4.10;1.90;;;;;;;23.99;49.01;101246.05;105950;1264;99114;-86
2023/08/11 11:42:52;;;;;;;6.50;2.40;;;;;;;23.90;48.90;101247.38;105911;1260;99001;-86
2023/08/11 11:45:40;;;;;;;4.10;2.10;;;;;;;23.88;49.94;101243.14;106376;1260;97875;-86
2023/08/11 11:48:26;;;;;;;3.50;2.00;;;;;;;23.89;49.96;101244.80;105953;1260;97930;-85
2023/08/11 11:51:13;;;;;;;6.10;1.80;;;;;;;23.90;49.96;101243.71;105938;1259;101548;-86
2023/08/11 11:53:59;;;;;;;3.90;1.70;;;;;;;23.88;49.18;101242.49;106047;1260;99153;-87
2023/08/11 11:56:45;;;;;;;3.50;1.60;;;;;;;23.85;49.12;101240.27;105914;1267;98039;-86
2023/08/11 11:59:32;;;;;;;2.60;1.70;;;;;;;23.86;49.54;101240.11;105802;1261;97900;-86
2023/08/11 12:02:18;;;;;;;4.60;2.20;;;;;;;23.85;49.18;101242.08;105852;1264;97800;-86
2023/08/11 12:05:04;;;;;;;5.40;1.60;;;;;;;23.77;49.35;101244.69;105755;1259;101565;-86
2023/08/11 12:07:50;;;;;;;4.00;1.80;;;;;;;23.76;49.31;101242.88;106033;1264;100199;-85
2023/08/11 12:10:36;;;;;;;3.50;1.60;;;;;;;23.80;48.87;101239.79;105711;1263;98028;-85
2023/08/11 12:13:22;;;;;;;4.70;1.80;;;;;;;23.91;50.32;101239.67;105956;1259;97970;-86
2023/08/11 12:16:09;;;;;;;3.00;1.80;;;;;;;24.02;50.10;101239.91;105961;1260;98399;-86
2023/08/11 12:19:00;;;;;;;4.80;1.80;;;;;;;24.06;48.63;101238.75;105829;1260;101451;-86
2023/08/11 12:21:46;;;;;;;2.90;2.00;;;;;;;23.99;48.18;101238.70;105932;1260;99155;-87
2023/08/11 12:24:32;;;;;;;3.00;1.80;;;;;;;23.95;48.14;101237.96;105763;1264;98039;-87
2023/08/11 12:27:18;;;;;;;3.20;1.60;;;;;;;23.96;47.71;101236.89;105933;1260;98038;-86
2023/08/11 12:30:06;;;;;;;3.40;1.30;;;;;;;24.00;47.30;101237.90;105930;1259;97926;-87
2023/08/11 12:32:52;;;;;;;4.90;1.80;;;;;;;24.09;47.94;101243.48;105893;1263;101493;-86
2023/08/11 12:35:38;;;;;;;4.80;1.80;;;;;;;24.22;47.88;101238.52;105759;1260;99194;-86
2023/08/11 12:38:24;;;;;;;5.30;1.80;;;;;;;24.33;47.71;101237.77;105906;1259;99032;-85
2023/08/11 12:41:09;;;;;;;3.90;2.50;;;;;;;24.41;47.46;101236.64;105829;1267;97873;-86
2023/08/11 12:43:55;;;;;;;3.70;2.60;;;;;;;24.37;46.42;101232.71;106062;1261;98483;-85